Terminal Aerodrome Forecast
Issued by NWS Sterling, VA

Current Version | Previous Version | Text Only | Print | Product List | Glossary Off
Versions: 1 2 3 4 5 6 7 8 9 10 11 12 13 14 15 16 17 18 19 20 21 22 23 24 25 26 27 28

000
FTUS41 KLWX 232300 RRA
TAFDCA
TAF
KDCA 232341Z 2400/2424 14004KT 5SM -PLRA OVC025
     FM240200 11005KT 3SM -RAPL OVC015
     FM240400 06006KT 3SM -RA OVC008
     FM240900 02007KT 3SM -RAPL OVC008
     FM241200 36011KT 3SM -SNPLRA OVC008
     FM241400 34010KT 2SM -RASN OVC006
     FM242000 29012G20KT P6SM BKN025
     FM242200 29012G22KT P6SM SCT130=

USA.gov is the U.S. government's official web portal to all federal, state and local government web resources and services.